GHPLT EGAA-EINN
Flight info
| Callsign | GHPLT |
|---|---|
| Flight time | N/A |
| Altitude | 6000 |
| Route | EGAA EINN |
| Aircraft | P28A/L-VGD/A |
Departure
| Time | 2026-04-30 13:55 |
|---|---|
| Airport | Belfast International Airport (EGAA) |
Arrival
| Time | N/A |
|---|---|
| Airport | Shannon Airport (EINN) |
| Time | Latitude | Longitude | Altitude | Speed | Heading |
|---|---|---|---|---|---|
| 2026-04-30 13:38 | 54.66208 | -6.20810 | 245 ft | 0 kts | 282° |
| 2026-04-30 13:49 | 54.66207 | -6.20823 | 245 ft | 4 kts | 251° |
| 2026-04-30 13:50 | 54.66175 | -6.20883 | 245 ft | 7 kts | 204° |
| 2026-04-30 13:50 | 54.66092 | -6.20989 | 247 ft | 13 kts | 243° |
| 2026-04-30 13:50 | 54.66038 | -6.21183 | 245 ft | 21 kts | 244° |
| 2026-04-30 13:51 | 54.65967 | -6.21445 | 238 ft | 27 kts | 245° |
| 2026-04-30 13:51 | 54.65882 | -6.21765 | 228 ft | 31 kts | 242° |
| 2026-04-30 13:51 | 54.65789 | -6.22108 | 218 ft | 32 kts | 247° |
| 2026-04-30 13:51 | 54.65759 | -6.22426 | 209 ft | 21 kts | 262° |
| 2026-04-30 13:52 | 54.65745 | -6.22676 | 205 ft | 5 kts | 274° |
| 2026-04-30 13:52 | 54.65745 | -6.22679 | 205 ft | 0 kts | 273° |
| 2026-04-30 13:53 | 54.65745 | -6.22700 | 204 ft | 7 kts | 266° |
| 2026-04-30 13:53 | 54.65678 | -6.22794 | 204 ft | 19 kts | 166° |
| 2026-04-30 13:54 | 54.65465 | -6.22666 | 211 ft | 50 kts | 165° |
| 2026-04-30 13:54 | 54.65051 | -6.22492 | 295 ft | 66 kts | 167° |
| 2026-04-30 13:54 | 54.64642 | -6.22371 | 462 ft | 66 kts | 173° |
| 2026-04-30 13:54 | 54.64144 | -6.22767 | 504 ft | 88 kts | 202° |
| 2026-04-30 13:55 | 54.63667 | -6.23303 | 718 ft | 76 kts | 200° |
| 2026-04-30 13:55 | 54.63204 | -6.23831 | 856 ft | 77 kts | 203° |
| 2026-04-30 13:55 | 54.62786 | -6.24385 | 1035 ft | 75 kts | 206° |
| 2026-04-30 13:55 | 54.62367 | -6.24762 | 1201 ft | 68 kts | 187° |
| 2026-04-30 13:56 | 54.61907 | -6.25179 | 1294 ft | 78 kts | 193° |
| 2026-04-30 13:56 | 54.61474 | -6.25643 | 1488 ft | 72 kts | 197° |
| 2026-04-30 13:56 | 54.61051 | -6.26154 | 1570 ft | 77 kts | 188° |
| 2026-04-30 13:56 | 54.60578 | -6.26673 | 1705 ft | 78 kts | 196° |
| 2026-04-30 13:57 | 54.60164 | -6.27208 | 1904 ft | 71 kts | 194° |
| 2026-04-30 13:57 | 54.59795 | -6.27667 | 2080 ft | 61 kts | 189° |
| 2026-04-30 13:57 | 54.59449 | -6.28059 | 2210 ft | 59 kts | 186° |
| 2026-04-30 13:57 | 54.59107 | -6.28435 | 2334 ft | 58 kts | 185° |
| 2026-04-30 13:58 | 54.58763 | -6.28799 | 2441 ft | 58 kts | 184° |
| 2026-04-30 13:58 | 54.58017 | -6.29597 | 2615 ft | 69 kts | 191° |
| 2026-04-30 13:58 | 54.57595 | -6.30056 | 2693 ft | 75 kts | 192° |
| 2026-04-30 13:59 | 54.57133 | -6.30559 | 2783 ft | 79 kts | 194° |
| 2026-04-30 13:59 | 54.56667 | -6.31072 | 2905 ft | 79 kts | 193° |
| 2026-04-30 13:59 | 54.56221 | -6.31561 | 3075 ft | 73 kts | 192° |
| 2026-04-30 13:59 | 54.55815 | -6.31996 | 3242 ft | 66 kts | 189° |
| 2026-04-30 14:00 | 54.55444 | -6.32390 | 3406 ft | 59 kts | 187° |
| 2026-04-30 14:00 | 54.54785 | -6.33058 | 3665 ft | 52 kts | 181° |
| 2026-04-30 14:00 | 54.54464 | -6.33372 | 3752 ft | 54 kts | 183° |
| 2026-04-30 14:01 | 54.54124 | -6.33713 | 3833 ft | 59 kts | 186° |
| 2026-04-30 14:01 | 54.53751 | -6.34101 | 3919 ft | 64 kts | 189° |
| 2026-04-30 14:01 | 54.53359 | -6.34517 | 4004 ft | 69 kts | 191° |
| 2026-04-30 14:01 | 54.52948 | -6.34958 | 4103 ft | 71 kts | 192° |
| 2026-04-30 14:02 | 54.52528 | -6.35411 | 4211 ft | 71 kts | 192° |
| 2026-04-30 14:02 | 54.52113 | -6.35857 | 4338 ft | 69 kts | 193° |
| 2026-04-30 14:02 | 54.51707 | -6.36287 | 4461 ft | 67 kts | 192° |
| 2026-04-30 14:02 | 54.51298 | -6.36712 | 4522 ft | 74 kts | 192° |
| 2026-04-30 14:03 | 54.50833 | -6.37200 | 4461 ft | 81 kts | 197° |
| 2026-04-30 14:03 | 54.50348 | -6.37727 | 4390 ft | 83 kts | 197° |
| 2026-04-30 14:03 | 54.49857 | -6.38256 | 4320 ft | 84 kts | 197° |
| 2026-04-30 14:03 | 54.49353 | -6.38793 | 4250 ft | 85 kts | 197° |
| 2026-04-30 14:04 | 54.48846 | -6.39329 | 4178 ft | 85 kts | 197° |
| 2026-04-30 14:04 | 54.48336 | -6.39867 | 4104 ft | 86 kts | 197° |
| 2026-04-30 14:04 | 54.47832 | -6.40398 | 4032 ft | 86 kts | 196° |
| 2026-04-30 14:04 | 54.47316 | -6.40939 | 3961 ft | 86 kts | 196° |
| 2026-04-30 14:05 | 54.46818 | -6.41463 | 3959 ft | 82 kts | 195° |
| 2026-04-30 14:05 | 54.46296 | -6.41984 | 3968 ft | 93 kts | 196° |
| 2026-04-30 14:05 | 54.45711 | -6.42585 | 3965 ft | 102 kts | 198° |
| 2026-04-30 14:05 | 54.45083 | -6.43243 | 3963 ft | 108 kts | 199° |
| 2026-04-30 14:06 | 54.44435 | -6.43925 | 3962 ft | 111 kts | 199° |
| 2026-04-30 14:06 | 54.43088 | -6.45339 | 3962 ft | 114 kts | 199° |
| 2026-04-30 14:07 | 54.42088 | -6.47696 | 3961 ft | 128 kts | 229° |
| 2026-04-30 14:07 | 54.41658 | -6.49047 | 3959 ft | 129 kts | 229° |
| 2026-04-30 14:07 | 54.41231 | -6.50389 | 3959 ft | 129 kts | 230° |
| 2026-04-30 14:08 | 54.40374 | -6.53095 | 3958 ft | 129 kts | 230° |
| 2026-04-30 14:08 | 54.39961 | -6.54416 | 3955 ft | 120 kts | 230° |
| 2026-04-30 14:08 | 54.39202 | -6.56812 | 3955 ft | 111 kts | 227° |
| 2026-04-30 14:09 | 54.38838 | -6.57952 | 3956 ft | 109 kts | 227° |
| 2026-04-30 14:09 | 54.38475 | -6.59088 | 3956 ft | 108 kts | 227° |
| 2026-04-30 14:09 | 54.37758 | -6.61336 | 3956 ft | 106 kts | 226° |
| 2026-04-30 14:10 | 54.37401 | -6.62455 | 3956 ft | 106 kts | 226° |
| 2026-04-30 14:10 | 54.37048 | -6.63561 | 3955 ft | 106 kts | 227° |
| 2026-04-30 14:10 | 54.36695 | -6.64672 | 3955 ft | 106 kts | 227° |
| 2026-04-30 14:10 | 54.36342 | -6.65779 | 3954 ft | 105 kts | 226° |
| 2026-04-30 14:11 | 54.35988 | -6.66892 | 3953 ft | 105 kts | 226° |
| 2026-04-30 14:11 | 54.35638 | -6.67986 | 3951 ft | 105 kts | 226° |
| 2026-04-30 14:11 | 54.35293 | -6.69069 | 3951 ft | 104 kts | 225° |
| 2026-04-30 14:11 | 54.34942 | -6.70167 | 3951 ft | 104 kts | 225° |
| 2026-04-30 14:12 | 54.34596 | -6.71252 | 3952 ft | 104 kts | 225° |
| 2026-04-30 14:12 | 54.34246 | -6.72347 | 3951 ft | 104 kts | 225° |
| 2026-04-30 14:12 | 54.33903 | -6.73422 | 3950 ft | 104 kts | 225° |
| 2026-04-30 14:12 | 54.33669 | -6.74154 | 3949 ft | 104 kts | 225° |
| 2026-04-30 14:13 | 54.33207 | -6.75596 | 3950 ft | 104 kts | 225° |
| 2026-04-30 14:13 | 54.32860 | -6.76682 | 3947 ft | 104 kts | 225° |
| 2026-04-30 14:13 | 54.32513 | -6.77765 | 3949 ft | 104 kts | 225° |
| 2026-04-30 14:13 | 54.32168 | -6.78843 | 3948 ft | 104 kts | 224° |
| 2026-04-30 14:14 | 54.31816 | -6.79938 | 3952 ft | 105 kts | 225° |
| 2026-04-30 14:14 | 54.31457 | -6.81048 | 3955 ft | 109 kts | 226° |
| 2026-04-30 14:14 | 54.31088 | -6.82196 | 3954 ft | 112 kts | 226° |
| 2026-04-30 14:14 | 54.30714 | -6.83367 | 3950 ft | 113 kts | 226° |
| 2026-04-30 14:15 | 54.30331 | -6.84562 | 3945 ft | 114 kts | 226° |
| 2026-04-30 14:15 | 54.29953 | -6.85747 | 3944 ft | 114 kts | 226° |
| 2026-04-30 14:15 | 54.29572 | -6.86935 | 3945 ft | 114 kts | 226° |
| 2026-04-30 14:15 | 54.29189 | -6.88129 | 3945 ft | 114 kts | 226° |
| 2026-04-30 14:16 | 54.28811 | -6.89307 | 3945 ft | 114 kts | 226° |
| 2026-04-30 14:16 | 54.28427 | -6.90504 | 3945 ft | 114 kts | 226° |
| 2026-04-30 14:16 | 54.28047 | -6.91682 | 3945 ft | 114 kts | 226° |
| 2026-04-30 14:16 | 54.27664 | -6.92875 | 3943 ft | 114 kts | 226° |
| 2026-04-30 14:17 | 54.27283 | -6.94060 | 3942 ft | 114 kts | 226° |
| 2026-04-30 14:17 | 54.26898 | -6.95252 | 3943 ft | 114 kts | 226° |
| 2026-04-30 14:17 | 54.26512 | -6.96451 | 3943 ft | 114 kts | 226° |
| 2026-04-30 14:17 | 54.26129 | -6.97640 | 3941 ft | 114 kts | 225° |
| 2026-04-30 14:18 | 54.25745 | -6.98827 | 3941 ft | 114 kts | 226° |
| 2026-04-30 14:18 | 54.25365 | -7.00005 | 3942 ft | 114 kts | 225° |
| 2026-04-30 14:18 | 54.24602 | -7.02365 | 3939 ft | 114 kts | 226° |
| 2026-04-30 14:19 | 54.23837 | -7.04729 | 3943 ft | 114 kts | 225° |
| 2026-04-30 14:19 | 54.23451 | -7.05918 | 3944 ft | 114 kts | 226° |
| 2026-04-30 14:19 | 54.23067 | -7.07103 | 3942 ft | 115 kts | 226° |
| 2026-04-30 14:20 | 54.22674 | -7.08312 | 3939 ft | 116 kts | 226° |
| 2026-04-30 14:20 | 54.22284 | -7.09516 | 3937 ft | 116 kts | 226° |
| 2026-04-30 14:20 | 54.21505 | -7.11920 | 3936 ft | 116 kts | 226° |
| 2026-04-30 14:21 | 54.21120 | -7.13106 | 3939 ft | 115 kts | 226° |
| 2026-04-30 14:21 | 54.20732 | -7.14301 | 3939 ft | 115 kts | 226° |
| 2026-04-30 14:21 | 54.19956 | -7.16689 | 3936 ft | 115 kts | 226° |
| 2026-04-30 14:22 | 54.19569 | -7.17877 | 3937 ft | 114 kts | 226° |
| 2026-04-30 14:22 | 54.18793 | -7.20259 | 3931 ft | 115 kts | 226° |
| 2026-04-30 14:22 | 54.18405 | -7.21449 | 3929 ft | 115 kts | 226° |
| 2026-04-30 14:23 | 54.17632 | -7.23820 | 3923 ft | 115 kts | 226° |
| 2026-04-30 14:23 | 54.16856 | -7.26195 | 3927 ft | 114 kts | 227° |
| 2026-04-30 14:24 | 54.16085 | -7.28554 | 3928 ft | 114 kts | 226° |
| 2026-04-30 14:24 | 54.15700 | -7.29730 | 3926 ft | 114 kts | 226° |
| 2026-04-30 14:25 | 54.14928 | -7.32088 | 3926 ft | 114 kts | 226° |
| 2026-04-30 14:25 | 54.14146 | -7.34467 | 3926 ft | 113 kts | 224° |
| 2026-04-30 14:26 | 54.12981 | -7.35675 | 3924 ft | 96 kts | 189° |
| 2026-04-30 14:26 | 54.12367 | -7.36112 | 3921 ft | 96 kts | 189° |
| 2026-04-30 14:26 | 54.11139 | -7.36975 | 3920 ft | 95 kts | 189° |
| 2026-04-30 14:27 | 54.10519 | -7.37406 | 3916 ft | 95 kts | 189° |
| 2026-04-30 14:27 | 54.09902 | -7.37834 | 3913 ft | 96 kts | 189° |
| 2026-04-30 14:27 | 54.09282 | -7.38261 | 3909 ft | 96 kts | 189° |
| 2026-04-30 14:28 | 54.08047 | -7.39110 | 3905 ft | 96 kts | 188° |
| 2026-04-30 14:28 | 54.07419 | -7.39540 | 3906 ft | 96 kts | 188° |
| 2026-04-30 14:28 | 54.06800 | -7.39964 | 3905 ft | 97 kts | 188° |
| 2026-04-30 14:28 | 54.06176 | -7.40390 | 3906 ft | 97 kts | 188° |
| 2026-04-30 14:29 | 54.04912 | -7.41253 | 3905 ft | 97 kts | 188° |
| 2026-04-30 14:29 | 54.03865 | -7.41966 | 3905 ft | 97 kts | 188° |
| 2026-04-30 14:30 | 54.01788 | -7.43382 | 3906 ft | 95 kts | 188° |
| 2026-04-30 14:31 | 54.00558 | -7.44218 | 3905 ft | 96 kts | 188° |
| 2026-04-30 14:31 | 53.99317 | -7.45061 | 3904 ft | 96 kts | 187° |
| 2026-04-30 14:31 | 53.98685 | -7.45489 | 3901 ft | 97 kts | 188° |
| 2026-04-30 14:32 | 53.97436 | -7.46336 | 3900 ft | 97 kts | 188° |
| 2026-04-30 14:32 | 53.96808 | -7.46762 | 3901 ft | 97 kts | 188° |
| 2026-04-30 14:32 | 53.96181 | -7.47187 | 3900 ft | 97 kts | 188° |
| 2026-04-30 14:33 | 53.95549 | -7.47615 | 3900 ft | 97 kts | 188° |
| 2026-04-30 14:33 | 53.94298 | -7.48462 | 3902 ft | 97 kts | 189° |
| 2026-04-30 14:33 | 53.93668 | -7.48889 | 3901 ft | 97 kts | 188° |
| 2026-04-30 14:34 | 53.93038 | -7.49316 | 3901 ft | 97 kts | 188° |
| 2026-04-30 14:34 | 53.92411 | -7.49741 | 3900 ft | 97 kts | 188° |
| 2026-04-30 14:34 | 53.91780 | -7.50169 | 3900 ft | 97 kts | 188° |
| 2026-04-30 14:34 | 53.91158 | -7.50589 | 3900 ft | 97 kts | 188° |
| 2026-04-30 14:35 | 53.90119 | -7.51291 | 3901 ft | 96 kts | 187° |
| 2026-04-30 14:35 | 53.89282 | -7.51856 | 3905 ft | 97 kts | 188° |
| 2026-04-30 14:35 | 53.88652 | -7.52281 | 3906 ft | 97 kts | 188° |
| 2026-04-30 14:36 | 53.88023 | -7.52706 | 3906 ft | 97 kts | 188° |
| 2026-04-30 14:36 | 53.87391 | -7.53132 | 3906 ft | 98 kts | 189° |
| 2026-04-30 14:36 | 53.86751 | -7.53564 | 3906 ft | 98 kts | 188° |
| 2026-04-30 14:36 | 53.86120 | -7.53990 | 3905 ft | 98 kts | 188° |
| 2026-04-30 14:37 | 53.85483 | -7.54420 | 3906 ft | 98 kts | 188° |
| 2026-04-30 14:37 | 53.84844 | -7.54851 | 3907 ft | 99 kts | 188° |
| 2026-04-30 14:37 | 53.84203 | -7.55283 | 3907 ft | 99 kts | 188° |
| 2026-04-30 14:37 | 53.83559 | -7.55717 | 3905 ft | 99 kts | 188° |
| 2026-04-30 14:38 | 53.82915 | -7.56151 | 3904 ft | 99 kts | 188° |
| 2026-04-30 14:38 | 53.82276 | -7.56581 | 3903 ft | 99 kts | 188° |
| 2026-04-30 14:38 | 53.81634 | -7.57013 | 3903 ft | 99 kts | 188° |
| 2026-04-30 14:38 | 53.80991 | -7.57446 | 3903 ft | 99 kts | 189° |
| 2026-04-30 14:39 | 53.80352 | -7.57876 | 3904 ft | 99 kts | 189° |
| 2026-04-30 14:39 | 53.79712 | -7.58306 | 3904 ft | 99 kts | 189° |
| 2026-04-30 14:39 | 53.79070 | -7.58738 | 3904 ft | 99 kts | 189° |
| 2026-04-30 14:40 | 53.77800 | -7.59592 | 3903 ft | 98 kts | 188° |
| 2026-04-30 14:40 | 53.77164 | -7.60019 | 3906 ft | 98 kts | 188° |
| 2026-04-30 14:40 | 53.76530 | -7.60445 | 3906 ft | 98 kts | 188° |
| 2026-04-30 14:40 | 53.75901 | -7.60865 | 3906 ft | 98 kts | 188° |
| 2026-04-30 14:41 | 53.75259 | -7.61296 | 3905 ft | 98 kts | 188° |
| 2026-04-30 14:41 | 53.74625 | -7.61720 | 3907 ft | 98 kts | 189° |
| 2026-04-30 14:41 | 53.73983 | -7.62150 | 3906 ft | 99 kts | 189° |
| 2026-04-30 14:41 | 53.73346 | -7.62577 | 3904 ft | 99 kts | 189° |
| 2026-04-30 14:42 | 53.72705 | -7.63007 | 3903 ft | 99 kts | 189° |
| 2026-04-30 14:42 | 53.72069 | -7.63433 | 3903 ft | 99 kts | 188° |
| 2026-04-30 14:42 | 53.71426 | -7.63864 | 3902 ft | 99 kts | 189° |
| 2026-04-30 14:42 | 53.70775 | -7.64300 | 3902 ft | 99 kts | 189° |
| 2026-04-30 14:43 | 53.70152 | -7.64858 | 3902 ft | 106 kts | 203° |
| 2026-04-30 14:43 | 53.69570 | -7.65641 | 3899 ft | 107 kts | 204° |
| 2026-04-30 14:43 | 53.68996 | -7.66418 | 3897 ft | 106 kts | 204° |
| 2026-04-30 14:43 | 53.68417 | -7.67204 | 3896 ft | 106 kts | 203° |
| 2026-04-30 14:44 | 53.67840 | -7.67985 | 3897 ft | 106 kts | 204° |
| 2026-04-30 14:44 | 53.67264 | -7.68765 | 3898 ft | 106 kts | 204° |
| 2026-04-30 14:44 | 53.66692 | -7.69538 | 3898 ft | 106 kts | 204° |
| 2026-04-30 14:44 | 53.66120 | -7.70313 | 3898 ft | 105 kts | 204° |
| 2026-04-30 14:45 | 53.65547 | -7.71090 | 3898 ft | 105 kts | 204° |
| 2026-04-30 14:45 | 53.64974 | -7.71866 | 3899 ft | 105 kts | 204° |
| 2026-04-30 14:45 | 53.64407 | -7.72633 | 3898 ft | 105 kts | 204° |
| 2026-04-30 14:45 | 53.63841 | -7.73399 | 3900 ft | 104 kts | 204° |
| 2026-04-30 14:46 | 53.63305 | -7.74140 | 3847 ft | 98 kts | 204° |
| 2026-04-30 14:46 | 53.62753 | -7.74879 | 3726 ft | 103 kts | 204° |
| 2026-04-30 14:46 | 53.62179 | -7.75651 | 3604 ft | 109 kts | 204° |
| 2026-04-30 14:46 | 53.61779 | -7.76189 | 3521 ft | 112 kts | 205° |
| 2026-04-30 14:47 | 53.60961 | -7.77294 | 3357 ft | 115 kts | 206° |
| 2026-04-30 14:47 | 53.60330 | -7.78150 | 3235 ft | 118 kts | 206° |
| 2026-04-30 14:47 | 53.59681 | -7.79022 | 3115 ft | 122 kts | 207° |
| 2026-04-30 14:47 | 53.59007 | -7.79936 | 2988 ft | 123 kts | 207° |
| 2026-04-30 14:48 | 53.58342 | -7.80840 | 2859 ft | 122 kts | 208° |
| 2026-04-30 14:48 | 53.57689 | -7.81724 | 2732 ft | 122 kts | 207° |
| 2026-04-30 14:48 | 53.57024 | -7.82622 | 2612 ft | 122 kts | 207° |
| 2026-04-30 14:48 | 53.56359 | -7.83522 | 2485 ft | 122 kts | 207° |
| 2026-04-30 14:49 | 53.55695 | -7.84416 | 2362 ft | 123 kts | 207° |
| 2026-04-30 14:49 | 53.55022 | -7.85322 | 2231 ft | 124 kts | 207° |
| 2026-04-30 14:49 | 53.54348 | -7.86228 | 2102 ft | 124 kts | 207° |
| 2026-04-30 14:49 | 53.53672 | -7.87138 | 1986 ft | 124 kts | 208° |
| 2026-04-30 14:50 | 53.52418 | -7.88829 | 2006 ft | 111 kts | 207° |
| 2026-04-30 14:50 | 53.51820 | -7.89628 | 2011 ft | 109 kts | 206° |
| 2026-04-30 14:51 | 53.50634 | -7.91213 | 2009 ft | 108 kts | 206° |
| 2026-04-30 14:51 | 53.50047 | -7.91998 | 2011 ft | 108 kts | 206° |
| 2026-04-30 14:51 | 53.48865 | -7.93577 | 1956 ft | 112 kts | 206° |
| 2026-04-30 14:52 | 53.48224 | -7.94424 | 1841 ft | 122 kts | 207° |
| 2026-04-30 14:52 | 53.46847 | -7.96273 | 1600 ft | 130 kts | 210° |
| 2026-04-30 14:52 | 53.46153 | -7.97211 | 1474 ft | 128 kts | 210° |
| 2026-04-30 14:53 | 53.44858 | -7.98961 | 1464 ft | 112 kts | 208° |
| 2026-04-30 14:53 | 53.44416 | -8.00052 | 1466 ft | 118 kts | 243° |
| 2026-04-30 14:54 | 53.43971 | -8.02711 | 1467 ft | 116 kts | 246° |
| 2026-04-30 14:54 | 53.43537 | -8.05358 | 1373 ft | 123 kts | 248° |
| 2026-04-30 14:55 | 53.43082 | -8.08181 | 1218 ft | 127 kts | 249° |
| 2026-04-30 14:55 | 53.42856 | -8.09594 | 1215 ft | 123 kts | 249° |
| 2026-04-30 14:55 | 53.42403 | -8.12387 | 1216 ft | 126 kts | 249° |
| 2026-04-30 14:56 | 53.41945 | -8.15220 | 1216 ft | 126 kts | 249° |
| 2026-04-30 14:56 | 53.41491 | -8.18037 | 1218 ft | 125 kts | 249° |
| 2026-04-30 14:57 | 53.41262 | -8.19449 | 1216 ft | 126 kts | 249° |
| 2026-04-30 14:57 | 53.40724 | -8.22213 | 1212 ft | 120 kts | 227° |
| 2026-04-30 14:58 | 53.39669 | -8.24361 | 1213 ft | 119 kts | 221° |
| 2026-04-30 14:58 | 53.39135 | -8.25430 | 1214 ft | 119 kts | 221° |
| 2026-04-30 14:58 | 53.38065 | -8.27558 | 1212 ft | 118 kts | 217° |
| 2026-04-30 14:59 | 53.36701 | -8.27828 | 1211 ft | 102 kts | 167° |
| 2026-04-30 15:00 | 53.34929 | -8.30296 | 1170 ft | 122 kts | 222° |
| 2026-04-30 15:00 | 53.33807 | -8.32537 | 1026 ft | 127 kts | 224° |
| 2026-04-30 15:01 | 53.32688 | -8.34782 | 997 ft | 122 kts | 223° |
| 2026-04-30 15:01 | 53.32329 | -8.35503 | 995 ft | 121 kts | 223° |
| 2026-04-30 15:01 | 53.31080 | -8.38000 | 997 ft | 120 kts | 222° |
| 2026-04-30 15:02 | 53.30548 | -8.39060 | 1000 ft | 119 kts | 223° |
| 2026-04-30 15:02 | 53.30017 | -8.40121 | 1001 ft | 119 kts | 223° |
| 2026-04-30 15:03 | 53.28419 | -8.43309 | 998 ft | 118 kts | 223° |
| 2026-04-30 15:03 | 53.27369 | -8.45401 | 996 ft | 117 kts | 223° |
| 2026-04-30 15:04 | 53.26327 | -8.47477 | 997 ft | 117 kts | 222° |
| 2026-04-30 15:04 | 53.24758 | -8.50598 | 1003 ft | 117 kts | 223° |
| 2026-04-30 15:05 | 53.23181 | -8.53733 | 1000 ft | 117 kts | 223° |
| 2026-04-30 15:06 | 53.22135 | -8.55813 | 1001 ft | 117 kts | 222° |
| 2026-04-30 15:06 | 53.21086 | -8.57898 | 1001 ft | 117 kts | 223° |
| 2026-04-30 15:07 | 53.20031 | -8.59991 | 934 ft | 121 kts | 223° |
| 2026-04-30 15:07 | 53.18908 | -8.62223 | 792 ft | 123 kts | 224° |
| 2026-04-30 15:08 | 53.17829 | -8.64369 | 790 ft | 119 kts | 223° |
| 2026-04-30 15:08 | 53.16241 | -8.67519 | 782 ft | 118 kts | 223° |
| 2026-04-30 15:09 | 53.15192 | -8.69595 | 785 ft | 118 kts | 222° |
| 2026-04-30 15:09 | 53.14119 | -8.71712 | 776 ft | 120 kts | 223° |
| 2026-04-30 15:10 | 53.13041 | -8.73844 | 796 ft | 121 kts | 223° |
| 2026-04-30 15:11 | 53.10824 | -8.78228 | 725 ft | 128 kts | 224° |
| 2026-04-30 15:11 | 53.09684 | -8.80497 | 567 ft | 123 kts | 224° |
| 2026-04-30 15:12 | 53.08147 | -8.83548 | 583 ft | 111 kts | 224° |
| 2026-04-30 15:13 | 53.07165 | -8.85486 | 584 ft | 110 kts | 224° |
| 2026-04-30 15:14 | 53.05029 | -8.88991 | 576 ft | 104 kts | 203° |
| 2026-04-30 15:14 | 53.03071 | -8.90504 | 580 ft | 103 kts | 194° |
| 2026-04-30 15:16 | 52.99686 | -8.92595 | 532 ft | 105 kts | 193° |
| 2026-04-30 15:17 | 52.96949 | -8.94227 | 503 ft | 107 kts | 193° |
| 2026-04-30 15:18 | 52.93267 | -8.96414 | 472 ft | 117 kts | 194° |
| 2026-04-30 15:19 | 52.90957 | -8.97786 | 478 ft | 117 kts | 194° |